ESU weather

Mogador Airport
Essaouira, Essaouira Province, Morocco

Public forecast

Using degrees Celsius for public forecast. Weather courtesy of forecast.io.

METAR (pilot weather report)

Retrieved 2019/05/21 14:00 UTC (2 minutes ago):

GMMI 211400Z 06014KT 6000 NSC 27/11 Q1013 NOSIG

TAF (pilot weather forecast)

Retrieved 2019/05/21 12:00 UTC (2 hours ago):

TAF GMMI 211100Z 2112/2218 03014KT 8000 NSC PROB40 TEMPO 2112/2118 04015G28KT